createdAt,value
2022-08-03T00:00:40.489Z,12.5
2022-08-03T00:01:40.489Z,12.5
2022-08-03T00:02:40.531Z,12.6
2022-08-03T00:03:40.499Z,12.6
2022-08-03T00:04:40.487Z,12.6
2022-08-03T00:05:40.506Z,12.6
2022-08-03T00:06:40.497Z,12.6
2022-08-03T00:07:40.491Z,12.6
2022-08-03T00:08:40.494Z,12.5
2022-08-03T00:09:40.479Z,12.5
2022-08-03T00:10:40.496Z,12.5
2022-08-03T00:11:40.487Z,12.6
2022-08-03T00:12:40.480Z,12.6
2022-08-03T00:13:40.481Z,12.6
2022-08-03T00:14:40.486Z,12.6
2022-08-03T00:15:40.517Z,12.6
2022-08-03T00:16:40.490Z,12.6
2022-08-03T00:17:53.662Z,12.6
2022-08-03T00:18:40.498Z,12.6
2022-08-03T00:19:40.501Z,12.5
2022-08-03T00:20:40.481Z,12.5
2022-08-03T00:21:40.592Z,12.5
2022-08-03T00:22:40.484Z,12.5
2022-08-03T00:23:51.312Z,12.6
2022-08-03T00:24:40.497Z,12.6
2022-08-03T00:25:40.487Z,12.3
2022-08-03T00:26:40.501Z,12.4
2022-08-03T00:27:40.495Z,12.4
2022-08-03T00:28:40.512Z,12.5
2022-08-03T00:29:59.796Z,12.5
2022-08-03T00:30:40.498Z,12.5
2022-08-03T00:31:52.810Z,12.5
2022-08-03T00:32:44.969Z,12
2022-08-03T00:33:58.441Z,11.9
2022-08-03T00:34:57.854Z,12.1
2022-08-03T00:35:50.114Z,12.1
2022-08-03T00:36:40.499Z,12.2
2022-08-03T00:37:41.960Z,12.2
2022-08-03T00:38:40.498Z,12.3
2022-08-03T00:39:40.494Z,12.3
2022-08-03T00:40:40.496Z,12.4
2022-08-03T00:41:40.524Z,12.3
2022-08-03T00:42:40.492Z,12.2
2022-08-03T00:43:40.497Z,12.2
2022-08-03T00:44:40.524Z,12
2022-08-03T00:45:40.507Z,11.9
2022-08-03T00:46:40.508Z,11.4
2022-08-03T00:47:40.512Z,10.8
2022-08-03T00:48:40.514Z,11
2022-08-03T00:49:41.083Z,10.8
2022-08-03T00:50:40.503Z,10.5
2022-08-03T00:51:40.493Z,11
2022-08-03T00:52:40.503Z,11.2
2022-08-03T00:53:40.518Z,11
2022-08-03T00:54:40.513Z,11.3
2022-08-03T00:55:40.494Z,11.5
2022-08-03T00:56:40.516Z,11.7
2022-08-03T00:57:40.534Z,11.8
2022-08-03T00:58:40.503Z,11.9
2022-08-03T00:59:40.512Z,12
2022-08-03T01:00:40.506Z,12
2022-08-03T01:01:40.601Z,12.1
2022-08-03T01:02:40.515Z,12.2
2022-08-03T01:03:40.514Z,12.3
2022-08-03T01:04:40.506Z,12.3
2022-08-03T01:05:40.505Z,12.3
2022-08-03T01:06:40.513Z,12.3
2022-08-03T01:07:40.503Z,12.4
2022-08-03T01:08:40.508Z,12.4
2022-08-03T01:09:40.508Z,12.4
2022-08-03T01:10:40.505Z,12.5
2022-08-03T01:12:00.165Z,12.4
2022-08-03T01:12:40.514Z,12.4
2022-08-03T01:14:01.175Z,12.5
2022-08-03T01:14:40.513Z,12.4
2022-08-03T01:15:40.517Z,12.3
2022-08-03T01:16:40.532Z,12.2
2022-08-03T01:17:40.509Z,12.3
2022-08-03T01:18:40.512Z,12.2
2022-08-03T01:19:40.523Z,12.3
2022-08-03T01:20:40.506Z,12.3
2022-08-03T01:21:40.512Z,12.4
2022-08-03T01:22:40.521Z,12.4
2022-08-03T01:23:40.516Z,12.4
2022-08-03T01:24:40.968Z,12.2
2022-08-03T01:25:40.517Z,12.3
2022-08-03T01:27:40.528Z,12.4
2022-08-03T01:28:40.516Z,12.3
2022-08-03T01:29:40.522Z,12.2
2022-08-03T01:30:40.516Z,12.1
2022-08-03T01:32:53.636Z,12.2
2022-08-03T01:32:59.422Z,12.2
2022-08-03T01:33:40.509Z,12.2
2022-08-03T01:34:40.521Z,12.2
2022-08-03T01:35:40.512Z,12.2
2022-08-03T01:36:40.515Z,12.3
2022-08-03T01:37:40.528Z,12.4
2022-08-03T01:38:40.506Z,12.3
2022-08-03T01:39:40.525Z,12.3
2022-08-03T01:40:40.538Z,12.4
2022-08-03T01:41:40.513Z,12.1
2022-08-03T01:42:40.524Z,12.2
2022-08-03T01:43:55.463Z,12.2
2022-08-03T01:44:40.522Z,12.2
2022-08-03T01:45:40.510Z,12.3
2022-08-03T01:46:40.523Z,12.3
2022-08-03T01:47:40.515Z,12.4
2022-08-03T01:48:40.515Z,12.4
2022-08-03T01:49:40.632Z,12.4
2022-08-03T01:50:40.531Z,12.4
2022-08-03T01:51:56.622Z,12.4
2022-08-03T01:52:40.659Z,12.4
2022-08-03T01:53:40.526Z,12.4
2022-08-03T01:54:40.538Z,12.5
2022-08-03T01:55:40.516Z,12.2
2022-08-03T01:56:40.526Z,12
2022-08-03T01:58:05.765Z,11.6
2022-08-03T01:58:40.530Z,11.3
2022-08-03T01:59:40.533Z,11.4
2022-08-03T02:00:40.604Z,11.1
2022-08-03T02:02:28.734Z,10.5
2022-08-03T02:02:40.970Z,10.8
2022-08-03T02:04:00.565Z,11
2022-08-03T02:04:40.521Z,10.6
2022-08-03T02:05:40.525Z,10.7
2022-08-03T02:06:59.909Z,10.9
2022-08-03T02:07:40.518Z,10.6
2022-08-03T02:08:40.531Z,10.5
2022-08-03T02:09:40.761Z,10.2
2022-08-03T02:10:40.526Z,10.3
2022-08-03T02:11:40.540Z,10.1
2022-08-03T02:12:40.520Z,9.7
2022-08-03T02:13:40.525Z,9.8
2022-08-03T02:14:40.541Z,10.2
2022-08-03T02:15:40.536Z,10.6
2022-08-03T02:16:40.537Z,10.8
2022-08-03T02:17:40.577Z,11.1
2022-08-03T02:18:40.533Z,11.3
2022-08-03T02:19:40.527Z,11.4
2022-08-03T02:20:40.531Z,11.5
2022-08-03T02:21:56.673Z,11.6
2022-08-03T02:22:40.665Z,11.7
2022-08-03T02:23:40.520Z,11.7
2022-08-03T02:24:40.615Z,11.8
2022-08-03T02:25:40.741Z,11.9
2022-08-03T02:26:40.557Z,12
2022-08-03T02:27:43.600Z,11.7
2022-08-03T02:28:40.593Z,11.8
2022-08-03T02:29:41.055Z,11.4
2022-08-03T02:30:40.532Z,11.4
2022-08-03T02:31:40.537Z,10.7
2022-08-03T02:32:47.154Z,11.1
2022-08-03T02:33:40.534Z,11.3
2022-08-03T02:34:40.532Z,11.5
2022-08-03T02:35:40.547Z,11.6
2022-08-03T02:36:40.527Z,11.7
2022-08-03T02:37:41.421Z,11.8
2022-08-03T02:38:40.541Z,11.8
2022-08-03T02:39:40.533Z,11.7
2022-08-03T02:40:40.557Z,11.5
2022-08-03T02:41:40.529Z,11.5
2022-08-03T02:42:40.545Z,11.2
2022-08-03T02:44:06.581Z,11.2
2022-08-03T02:44:40.541Z,11.2
2022-08-03T02:45:45.045Z,11
2022-08-03T02:46:40.540Z,11.1
2022-08-03T02:47:53.255Z,11.2
2022-08-03T02:48:40.547Z,11.3
2022-08-03T02:49:50.662Z,11.4
2022-08-03T02:50:40.539Z,11.3
2022-08-03T02:51:40.528Z,11.1
2022-08-03T02:52:40.541Z,10.9
2022-08-03T02:53:40.545Z,10.4
2022-08-03T02:54:40.632Z,10.6
2022-08-03T02:55:43.308Z,10.3
2022-08-03T02:56:40.553Z,10.4
2022-08-03T02:57:40.534Z,10.6
2022-08-03T02:58:40.576Z,10.7
2022-08-03T02:59:40.534Z,10.9
2022-08-03T03:00:40.591Z,11.1
2022-08-03T03:01:40.544Z,10.8
2022-08-03T03:02:40.550Z,10.7
2022-08-03T03:03:45.021Z,10.9
2022-08-03T03:04:44.426Z,11.1
2022-08-03T03:05:53.052Z,10.8
2022-08-03T03:06:40.545Z,10.9
2022-08-03T03:07:52.195Z,11
2022-08-03T03:08:40.557Z,10.9
2022-08-03T03:09:43.132Z,11
2022-08-03T03:10:40.554Z,11.3
2022-08-03T03:11:40.549Z,11.4
2022-08-03T03:12:40.539Z,11.5
2022-08-03T03:13:40.557Z,11.6
2022-08-03T03:14:40.542Z,11.5
2022-08-03T03:15:40.539Z,11.5
2022-08-03T03:16:40.546Z,11.5
2022-08-03T03:17:40.544Z,11.6
2022-08-03T03:18:40.544Z,11.7
2022-08-03T03:19:40.558Z,11.5
2022-08-03T03:20:40.552Z,11.6
2022-08-03T03:21:40.543Z,11.7
2022-08-03T03:22:40.552Z,11.5
2022-08-03T03:23:40.546Z,11.4
2022-08-03T03:24:40.584Z,11.5
2022-08-03T03:25:40.544Z,11.6
2022-08-03T03:26:42.496Z,11.7
2022-08-03T03:27:40.548Z,11.8
2022-08-03T03:28:40.553Z,11.2
2022-08-03T03:29:40.545Z,10.7
2022-08-03T03:30:40.548Z,10.3
2022-08-03T03:31:40.553Z,10.6
2022-08-03T03:32:34.637Z,10.9
2022-08-03T03:33:40.560Z,10.6
2022-08-03T03:34:40.550Z,10.6
2022-08-03T03:35:40.569Z,10.9
2022-08-03T03:36:40.731Z,11
2022-08-03T03:37:40.554Z,11.3
2022-08-03T03:38:40.580Z,11.5
2022-08-03T03:39:40.547Z,11.6
2022-08-03T03:40:40.559Z,11.7
2022-08-03T03:42:40.568Z,11.7
2022-08-03T03:43:40.580Z,11.7
2022-08-03T03:44:40.570Z,11.8
2022-08-03T03:45:40.567Z,11.8
2022-08-03T03:46:40.556Z,11.9
2022-08-03T03:47:40.562Z,11.9
2022-08-03T03:48:40.557Z,11.5
2022-08-03T03:49:40.633Z,11.7
2022-08-03T03:50:40.570Z,11.7
2022-08-03T03:51:40.571Z,11.8
2022-08-03T03:52:40.557Z,11.7
2022-08-03T03:53:40.558Z,11.9
2022-08-03T03:54:40.567Z,11.9
2022-08-03T03:55:59.111Z,11.9
2022-08-03T03:56:40.567Z,12
2022-08-03T03:57:40.573Z,12
2022-08-03T03:58:40.553Z,12.1
2022-08-03T03:59:40.562Z,12
2022-08-03T04:00:40.593Z,12.1
2022-08-03T04:01:40.568Z,12
2022-08-03T04:02:40.561Z,12
2022-08-03T04:03:40.558Z,11.5
2022-08-03T04:04:40.558Z,11.7
2022-08-03T04:05:45.549Z,11.8
2022-08-03T04:06:40.559Z,11.9
2022-08-03T04:07:40.560Z,11.9
2022-08-03T04:08:40.644Z,12
2022-08-03T04:09:40.564Z,11.9
2022-08-03T04:10:40.579Z,11.8
2022-08-03T04:11:40.587Z,11.9
2022-08-03T04:12:49.102Z,12
2022-08-03T04:13:40.577Z,11.5
2022-08-03T04:14:40.554Z,11.5
2022-08-03T04:15:40.571Z,11.6
2022-08-03T04:16:43.640Z,11.7
2022-08-03T04:17:40.565Z,11.7
2022-08-03T04:18:40.574Z,11.7
2022-08-03T04:19:40.570Z,11.7
2022-08-03T04:20:40.571Z,11.8
2022-08-03T04:21:40.565Z,11.8
2022-08-03T04:22:40.573Z,11.8
2022-08-03T04:23:40.581Z,11.8
2022-08-03T04:24:40.567Z,11.8
2022-08-03T04:25:40.576Z,11.9
2022-08-03T04:26:40.572Z,11.9
2022-08-03T04:27:40.580Z,12
2022-08-03T04:28:40.574Z,12.1
2022-08-03T04:29:48.246Z,12
2022-08-03T04:30:40.569Z,12.1
2022-08-03T04:31:40.566Z,12.2
2022-08-03T04:32:45.507Z,12.1
2022-08-03T04:33:40.587Z,12.2
2022-08-03T04:34:40.573Z,12.2
2022-08-03T04:36:01.033Z,12.2
2022-08-03T04:36:40.570Z,12.2
2022-08-03T04:37:40.577Z,12.2
2022-08-03T04:38:40.576Z,12.2
2022-08-03T04:39:40.575Z,12.3
2022-08-03T04:40:40.581Z,12.2
2022-08-03T04:42:06.926Z,12.3
2022-08-03T04:42:40.582Z,12.3
2022-08-03T04:43:40.577Z,12.4
2022-08-03T04:44:40.696Z,12.4
2022-08-03T04:45:40.584Z,12.4
2022-08-03T04:46:40.588Z,12.3
2022-08-03T04:47:40.566Z,12.3
2022-08-03T04:48:44.495Z,12.3
2022-08-03T04:49:40.637Z,12.3
2022-08-03T04:50:40.582Z,12.3
2022-08-03T04:51:40.589Z,12.3
2022-08-03T04:52:40.578Z,12.2
2022-08-03T04:53:40.579Z,12.1
2022-08-03T04:54:40.577Z,12.2
2022-08-03T04:55:40.583Z,12.2
2022-08-03T04:56:40.582Z,12.2
2022-08-03T04:57:40.576Z,12.3
2022-08-03T04:58:40.578Z,12.3
2022-08-03T04:59:40.949Z,12.3
2022-08-03T05:00:40.611Z,12.3
2022-08-03T05:01:40.623Z,12.3
2022-08-03T05:02:40.588Z,12.4
2022-08-03T05:03:40.585Z,12.4
2022-08-03T05:04:40.588Z,12.5
2022-08-03T05:05:50.472Z,12.5
2022-08-03T05:06:47.922Z,12.5
2022-08-03T05:07:40.593Z,12.5
2022-08-03T05:08:45.950Z,12.5
2022-08-03T05:09:49.803Z,12.7
2022-08-03T05:10:40.607Z,12.6
2022-08-03T05:11:40.584Z,12.5
2022-08-03T05:12:40.590Z,12.5
2022-08-03T05:13:40.591Z,12.5
2022-08-03T05:14:40.587Z,12.5
2022-08-03T05:15:43.173Z,12.5
2022-08-03T05:16:40.593Z,12.6
2022-08-03T05:17:40.609Z,12.6
2022-08-03T05:18:40.596Z,12.6
2022-08-03T05:19:40.589Z,12.6
2022-08-03T05:20:40.590Z,12.6
2022-08-03T05:21:41.763Z,12.7
2022-08-03T05:22:40.586Z,12.7
2022-08-03T05:23:40.584Z,12.7
2022-08-03T05:24:40.594Z,12.8
2022-08-03T05:25:40.592Z,12.8
2022-08-03T05:26:40.588Z,12.9
2022-08-03T05:27:40.604Z,13
2022-08-03T05:28:40.588Z,12.5
2022-08-03T05:29:40.605Z,12.7
2022-08-03T05:30:40.587Z,12.5
2022-08-03T05:31:40.594Z,12.5
2022-08-03T05:32:40.599Z,12.5
2022-08-03T05:33:40.588Z,12.2
2022-08-03T05:34:40.589Z,12.1
2022-08-03T05:36:02.098Z,11.9
2022-08-03T05:36:40.612Z,11.6
2022-08-03T05:37:40.596Z,11.2
2022-08-03T05:38:40.585Z,11.2
2022-08-03T05:39:40.604Z,11.3
2022-08-03T05:40:40.593Z,11.2
2022-08-03T05:41:40.591Z,11.5
2022-08-03T05:42:40.607Z,11.6
2022-08-03T05:43:40.611Z,11.5
2022-08-03T05:44:40.591Z,11.2
2022-08-03T05:45:40.600Z,11.2
2022-08-03T05:46:40.608Z,11.3
2022-08-03T05:47:40.603Z,11.2
2022-08-03T05:48:40.611Z,10.9
2022-08-03T05:49:40.645Z,11.1
2022-08-03T05:50:42.890Z,11.3
2022-08-03T05:51:40.606Z,11.6
2022-08-03T05:52:40.605Z,11.9
2022-08-03T05:53:40.593Z,11.3
2022-08-03T05:54:57.438Z,11.1
2022-08-03T05:55:40.600Z,11.5
2022-08-03T05:56:40.615Z,11.5
2022-08-03T05:57:40.597Z,11.3
2022-08-03T05:58:40.615Z,11.9
2022-08-03T05:59:40.607Z,11.4
2022-08-03T06:00:40.601Z,11.5
2022-08-03T06:01:40.692Z,11.9
2022-08-03T06:02:40.603Z,12.2
2022-08-03T06:03:40.606Z,11.9
2022-08-03T06:04:40.608Z,11.9
2022-08-03T06:05:43.398Z,11.8
2022-08-03T06:06:40.611Z,11.7
2022-08-03T06:07:40.609Z,11.6
2022-08-03T06:08:40.630Z,11.6
2022-08-03T06:10:33.849Z,11.2
2022-08-03T06:10:40.616Z,11.1
2022-08-03T06:11:40.627Z,11.7
2022-08-03T06:12:40.616Z,11.4
2022-08-03T06:13:40.615Z,11.2
2022-08-03T06:14:40.605Z,11.6
2022-08-03T06:15:40.685Z,12
2022-08-03T06:16:40.613Z,11.8
2022-08-03T06:17:40.608Z,11.7
2022-08-03T06:18:40.608Z,11.4
2022-08-03T06:19:40.617Z,11.6
2022-08-03T06:20:40.636Z,12.1
2022-08-03T06:21:40.613Z,11.7
2022-08-03T06:22:49.110Z,12.1
2022-08-03T06:23:52.745Z,12.5
2022-08-03T06:24:40.616Z,11.9
2022-08-03T06:25:40.617Z,12.3
2022-08-03T06:26:40.623Z,12.6
2022-08-03T06:27:40.629Z,12.7
2022-08-03T06:28:52.461Z,12.8
2022-08-03T06:29:40.607Z,13
2022-08-03T06:30:40.630Z,13.1
2022-08-03T06:31:40.631Z,13.2
2022-08-03T06:32:40.615Z,13.3
2022-08-03T06:34:31.161Z,13.3
2022-08-03T06:34:40.616Z,13.2
2022-08-03T06:35:41.572Z,13.2
2022-08-03T06:36:40.610Z,13.3
2022-08-03T06:37:40.631Z,13.5
2022-08-03T06:38:40.623Z,13.5
2022-08-03T06:39:40.669Z,13.5
2022-08-03T06:40:40.621Z,13.6
2022-08-03T06:41:44.597Z,13.6
2022-08-03T06:42:40.613Z,13.6
2022-08-03T06:44:03.332Z,13.6
2022-08-03T06:44:40.619Z,13.5
2022-08-03T06:45:40.642Z,13.5
2022-08-03T06:46:40.625Z,13.4
2022-08-03T06:47:40.623Z,13.5
2022-08-03T06:48:40.627Z,13.5
2022-08-03T06:49:40.716Z,13.6
2022-08-03T06:50:40.622Z,13.5
2022-08-03T06:52:03.031Z,12.8
2022-08-03T06:52:40.635Z,13.3
2022-08-03T06:53:40.626Z,13.5
2022-08-03T06:54:40.625Z,13.7
2022-08-03T06:55:42.362Z,13.6
2022-08-03T06:56:40.623Z,13.6
2022-08-03T06:57:40.620Z,13.6
2022-08-03T06:58:40.632Z,13.6
2022-08-03T07:00:08.447Z,13.6
2022-08-03T07:00:40.630Z,12.9
2022-08-03T07:01:40.751Z,13
2022-08-03T07:02:40.618Z,13.1
2022-08-03T07:03:40.632Z,13.1
2022-08-03T07:04:40.630Z,13.3
2022-08-03T07:05:40.619Z,12.9
2022-08-03T07:06:40.629Z,13.3
2022-08-03T07:07:40.642Z,13.4
2022-08-03T07:08:40.649Z,13.3
2022-08-03T07:09:40.662Z,13.5
2022-08-03T07:10:40.640Z,12.9
2022-08-03T07:11:40.634Z,13.5
2022-08-03T07:12:55.774Z,13.5
2022-08-03T07:13:40.644Z,13.5
2022-08-03T07:14:40.632Z,13.5
2022-08-03T07:15:55.374Z,13.6
2022-08-03T07:16:40.630Z,13.6
2022-08-03T07:17:40.640Z,13.6
2022-08-03T07:18:40.637Z,13.7
2022-08-03T07:19:40.668Z,13.7
2022-08-03T07:20:40.657Z,13.3
2022-08-03T07:21:40.640Z,13.2
2022-08-03T07:22:40.659Z,13.5
2022-08-03T07:23:40.653Z,13.5
2022-08-03T07:24:40.636Z,13.3
2022-08-03T07:25:40.644Z,13.4
2022-08-03T07:26:40.637Z,13.3
2022-08-03T07:27:40.642Z,13
2022-08-03T07:28:40.633Z,13.4
2022-08-03T07:29:40.640Z,13.5
2022-08-03T07:30:40.637Z,13.6
2022-08-03T07:31:40.641Z,13.7
2022-08-03T07:32:49.752Z,13.8
2022-08-03T07:33:40.632Z,13.7
2022-08-03T07:34:40.639Z,13.8
2022-08-03T07:35:40.629Z,13.9
2022-08-03T07:36:40.647Z,13.7
2022-08-03T07:37:40.704Z,13.8
2022-08-03T07:38:40.637Z,14
2022-08-03T07:39:40.644Z,13.9
2022-08-03T07:40:45.755Z,14.1
2022-08-03T07:41:40.877Z,13.5
2022-08-03T07:42:40.649Z,13.6
2022-08-03T07:43:40.639Z,13.8
2022-08-03T07:44:40.650Z,13.8
2022-08-03T07:45:40.648Z,13.9
2022-08-03T07:46:40.643Z,14.1
2022-08-03T07:47:40.646Z,13.9
2022-08-03T07:48:40.664Z,13.8
2022-08-03T07:49:40.776Z,14
2022-08-03T07:50:40.646Z,14
2022-08-03T07:51:40.641Z,14
2022-08-03T07:52:40.643Z,13.8
2022-08-03T07:53:42.893Z,13.5
2022-08-03T07:54:40.645Z,13.4
2022-08-03T07:55:40.665Z,13.7
2022-08-03T07:56:40.666Z,13.9
2022-08-03T07:57:40.653Z,13.9
2022-08-03T07:58:40.653Z,13.8
2022-08-03T07:59:49.143Z,13.8
2022-08-03T08:00:40.657Z,13.8
2022-08-03T08:01:40.722Z,13.9
2022-08-03T08:02:40.650Z,13.9
2022-08-03T08:03:52.935Z,13.9
2022-08-03T08:04:40.649Z,14
2022-08-03T08:05:40.648Z,13.9
2022-08-03T08:06:40.655Z,14
2022-08-03T08:07:40.654Z,13.9
2022-08-03T08:08:40.675Z,13.8
2022-08-03T08:09:40.658Z,13.6
2022-08-03T08:10:40.645Z,14
2022-08-03T08:11:40.652Z,13.9
2022-08-03T08:12:40.657Z,14.1
2022-08-03T08:13:40.659Z,13.9
2022-08-03T08:14:40.657Z,13.8
2022-08-03T08:15:42.575Z,14.1
2022-08-03T08:16:40.662Z,13.9
2022-08-03T08:17:40.657Z,13.9
2022-08-03T08:18:40.656Z,14
2022-08-03T08:19:43.836Z,14.4
2022-08-03T08:20:40.649Z,14.3
2022-08-03T08:21:52.958Z,14.3
2022-08-03T08:22:40.880Z,14.4
2022-08-03T08:23:43.503Z,14.3
2022-08-03T08:24:40.654Z,14
2022-08-03T08:25:40.690Z,14.3
2022-08-03T08:26:40.656Z,14.3
2022-08-03T08:28:31.451Z,14.4
2022-08-03T08:28:40.656Z,14.2
2022-08-03T08:29:47.662Z,14.2
2022-08-03T08:30:40.666Z,14.7
2022-08-03T08:31:40.695Z,14.9
2022-08-03T08:32:40.923Z,14.5
2022-08-03T08:34:01.414Z,14.6
2022-08-03T08:34:40.667Z,14.6
2022-08-03T08:35:40.657Z,14.6
2022-08-03T08:36:40.807Z,14.5
2022-08-03T08:37:40.665Z,14.3
2022-08-03T08:38:40.697Z,14.6
2022-08-03T08:39:40.673Z,14.6
2022-08-03T08:40:40.664Z,14.8
2022-08-03T08:41:40.664Z,15.1
2022-08-03T08:42:51.901Z,14.9
2022-08-03T08:43:40.662Z,14.8
2022-08-03T08:44:40.690Z,14.8
2022-08-03T08:45:40.665Z,14.7
2022-08-03T08:46:40.669Z,14.7
2022-08-03T08:47:51.587Z,14.5
2022-08-03T08:48:40.679Z,14.7
2022-08-03T08:49:46.491Z,14.5
2022-08-03T08:50:40.680Z,14.6
2022-08-03T08:51:50.988Z,14.7
2022-08-03T08:52:40.739Z,14.7
2022-08-03T08:53:40.693Z,14.7
2022-08-03T08:54:40.684Z,14.8
2022-08-03T08:55:58.921Z,14.7
2022-08-03T08:56:40.685Z,14.7
2022-08-03T08:57:43.123Z,14.3
2022-08-03T08:58:40.683Z,14.7
2022-08-03T08:59:47.807Z,14.7
2022-08-03T09:00:40.684Z,14.4
2022-08-03T09:01:40.669Z,14.7
2022-08-03T09:02:40.679Z,14.8
2022-08-03T09:03:41.677Z,15.1
2022-08-03T09:04:40.672Z,15.5
2022-08-03T09:05:55.306Z,15.5
2022-08-03T09:06:40.678Z,15.4
2022-08-03T09:07:40.698Z,15.4
2022-08-03T09:08:40.700Z,15.4
2022-08-03T09:10:08.200Z,15.3
2022-08-03T09:10:40.668Z,15.4
2022-08-03T09:11:52.464Z,15.4
2022-08-03T09:12:42.198Z,15.6
2022-08-03T09:13:40.685Z,15.4
2022-08-03T09:14:49.897Z,15.6
2022-08-03T09:15:40.683Z,15.7
2022-08-03T09:16:40.678Z,15.5
2022-08-03T09:17:40.671Z,15.7
2022-08-03T09:18:40.708Z,15.9
2022-08-03T09:19:40.679Z,15.7
2022-08-03T09:20:40.682Z,15.9
2022-08-03T09:21:40.700Z,15.7
2022-08-03T09:22:40.787Z,15.8
2022-08-03T09:24:00.649Z,15.8
2022-08-03T09:24:41.732Z,16.1
2022-08-03T09:25:40.692Z,16.4
2022-08-03T09:26:40.678Z,16.4
2022-08-03T09:29:00.661Z,16.2
2022-08-03T09:29:40.686Z,16.3
2022-08-03T09:30:40.699Z,16.5
2022-08-03T09:31:43.221Z,16.3
2022-08-03T09:32:40.690Z,16.4
2022-08-03T09:33:40.711Z,16.3
2022-08-03T09:34:40.765Z,16.5
2022-08-03T09:35:57.814Z,17.4
2022-08-03T09:36:40.686Z,17.3
2022-08-03T09:38:11.187Z,17
2022-08-03T09:38:40.701Z,16.9
2022-08-03T09:39:42.419Z,16.7
2022-08-03T09:40:40.691Z,16.4
2022-08-03T09:41:40.691Z,16.4
2022-08-03T09:42:40.702Z,16.3
2022-08-03T09:43:40.720Z,16.7
2022-08-03T09:44:40.686Z,16.5
2022-08-03T09:45:40.697Z,16.4
2022-08-03T09:46:40.704Z,16.4
2022-08-03T09:47:44.683Z,16.6
2022-08-03T09:48:40.711Z,16.8
2022-08-03T09:49:41.109Z,17
2022-08-03T09:50:40.715Z,17.2
2022-08-03T09:52:32.221Z,17.2
2022-08-03T09:52:49.737Z,17.2
2022-08-03T09:53:41.199Z,17.1
2022-08-03T09:54:40.713Z,16.8
2022-08-03T09:56:33.720Z,17.2
2022-08-03T09:56:40.703Z,17.2
2022-08-03T09:57:40.702Z,16.9
2022-08-03T09:58:40.716Z,17.3
2022-08-03T09:59:41.300Z,17.1
2022-08-03T10:00:40.725Z,17.2
2022-08-03T10:01:40.800Z,16.9
2022-08-03T10:02:40.698Z,17.3
2022-08-03T10:04:03.138Z,17.5
2022-08-03T10:04:40.725Z,17.5
2022-08-03T10:05:40.709Z,17.3
2022-08-03T10:07:40.707Z,17.4
2022-08-03T10:08:40.723Z,17.3
2022-08-03T10:09:40.720Z,17.1
2022-08-03T10:10:40.727Z,17.3
2022-08-03T10:11:42.340Z,17.2
2022-08-03T10:12:40.717Z,17.7
2022-08-03T10:13:40.757Z,17.9
2022-08-03T10:14:40.714Z,18
2022-08-03T10:16:22.183Z,17.8
2022-08-03T10:16:40.707Z,17.7
2022-08-03T10:17:40.861Z,17.8
2022-08-03T10:18:40.721Z,17.8
2022-08-03T10:19:40.698Z,17.5
2022-08-03T10:20:40.714Z,17.5
2022-08-03T10:21:40.711Z,17.6
2022-08-03T10:22:40.723Z,17.9
2022-08-03T10:23:40.761Z,17.8
2022-08-03T10:24:40.710Z,18
2022-08-03T10:25:40.715Z,18.1
2022-08-03T10:26:49.813Z,17.9
2022-08-03T10:27:40.713Z,17.7
2022-08-03T10:28:44.960Z,18.2
2022-08-03T10:29:40.723Z,18.3
2022-08-03T10:30:40.736Z,18.8
2022-08-03T10:31:57.552Z,18.2
2022-08-03T10:32:40.717Z,17.7
2022-08-03T10:33:49.567Z,17.5
2022-08-03T10:34:44.382Z,17.9
2022-08-03T10:36:40.708Z,18
2022-08-03T10:37:40.999Z,18.3
2022-08-03T10:38:40.729Z,18.4
2022-08-03T10:39:40.712Z,18.3
2022-08-03T10:40:48.732Z,18.6
2022-08-03T10:41:40.731Z,18.5
2022-08-03T10:42:40.714Z,18.5
2022-08-03T10:43:40.766Z,18.3
2022-08-03T10:44:40.709Z,18.5
2022-08-03T10:45:40.719Z,18.2
2022-08-03T10:46:44.754Z,18.3
2022-08-03T10:47:40.728Z,18.1
2022-08-03T10:48:40.741Z,18.8
2022-08-03T10:49:40.750Z,18.9
2022-08-03T10:50:40.721Z,18.6
2022-08-03T10:51:40.717Z,18.3
2022-08-03T10:52:42.205Z,18.8
2022-08-03T10:53:51.495Z,19.1
2022-08-03T10:54:40.719Z,19.1
2022-08-03T10:55:40.723Z,19.2
2022-08-03T10:56:45.877Z,19
2022-08-03T10:57:40.730Z,18.9
2022-08-03T10:58:53.333Z,19
2022-08-03T10:59:40.745Z,19.1
2022-08-03T11:00:40.784Z,19
2022-08-03T11:01:58.100Z,18.8
2022-08-03T11:02:40.721Z,18.8
2022-08-03T11:03:40.729Z,18.7
2022-08-03T11:04:40.724Z,18.4
2022-08-03T11:05:40.746Z,18.3
2022-08-03T11:06:40.752Z,18.5
2022-08-03T11:07:40.740Z,18.5
2022-08-03T11:09:40.731Z,18.5
2022-08-03T11:10:40.736Z,18.7
2022-08-03T11:11:40.728Z,18.8
2022-08-03T11:12:40.748Z,18.9
2022-08-03T11:13:40.741Z,19.1
2022-08-03T11:14:40.742Z,19
2022-08-03T11:15:40.745Z,18.9
2022-08-03T11:16:40.736Z,19.1
2022-08-03T11:17:46.433Z,19.1
2022-08-03T11:18:40.758Z,18.6
2022-08-03T11:19:57.512Z,18.3
2022-08-03T11:20:40.752Z,18.5
2022-08-03T11:21:40.752Z,18.5
2022-08-03T11:22:40.746Z,19.2
2022-08-03T11:24:04.309Z,19.1
2022-08-03T11:24:40.736Z,18.8
2022-08-03T11:25:54.903Z,18.9
2022-08-03T11:26:40.743Z,19
2022-08-03T11:27:40.747Z,19.2
2022-08-03T11:28:40.744Z,19.1
2022-08-03T11:29:40.741Z,19
2022-08-03T11:30:40.741Z,19
2022-08-03T11:31:49.807Z,18.6
2022-08-03T11:32:46.467Z,18.7
2022-08-03T11:33:40.764Z,19
2022-08-03T11:34:40.769Z,19.1
2022-08-03T11:35:40.738Z,18.8
2022-08-03T11:36:40.760Z,18.9
2022-08-03T11:37:40.745Z,18.8
2022-08-03T11:38:40.739Z,18.9
2022-08-03T11:39:40.782Z,18.7
2022-08-03T11:40:40.744Z,18.6
2022-08-03T11:41:45.043Z,18.7
2022-08-03T11:42:40.762Z,18.6
2022-08-03T11:43:40.749Z,18.8
2022-08-03T11:44:40.748Z,18.6
2022-08-03T11:45:40.749Z,18.8
2022-08-03T11:46:40.764Z,18.6
2022-08-03T11:47:51.175Z,18.5
2022-08-03T11:48:40.745Z,18.6
2022-08-03T11:49:40.792Z,18.8
2022-08-03T11:50:40.759Z,18.8
2022-08-03T11:51:40.790Z,18.4
2022-08-03T11:52:40.750Z,18.7
2022-08-03T11:53:41.733Z,18.6
2022-08-03T11:54:40.765Z,19.4
2022-08-03T11:55:40.756Z,19.1
2022-08-03T11:56:40.779Z,19
2022-08-03T11:58:58.132Z,19.8
2022-08-03T11:59:01.446Z,19.8
2022-08-03T11:59:40.763Z,19.7
2022-08-03T12:00:40.928Z,19.5
2022-08-03T12:01:41.880Z,19.1
2022-08-03T12:02:40.765Z,19.2
2022-08-03T12:03:40.869Z,18.9
2022-08-03T12:04:40.765Z,18.7
2022-08-03T12:05:40.761Z,18.8
2022-08-03T12:06:45.482Z,18.6
2022-08-03T12:08:04.209Z,18.9
2022-08-03T12:08:40.793Z,18.7
2022-08-03T12:09:40.788Z,19
2022-08-03T12:10:40.768Z,19
2022-08-03T12:11:40.776Z,19.3
2022-08-03T12:12:45.901Z,19.1
2022-08-03T12:13:56.787Z,19.5
2022-08-03T12:14:50.842Z,20.4
2022-08-03T12:15:40.793Z,20.1
2022-08-03T12:16:40.765Z,19.8
2022-08-03T12:17:40.784Z,19.9
2022-08-03T12:18:40.795Z,19.4
2022-08-03T12:19:40.782Z,19.3
2022-08-03T12:20:40.773Z,19.4
2022-08-03T12:21:40.781Z,19.7
2022-08-03T12:22:40.792Z,19.8
2022-08-03T12:23:40.781Z,19.7
2022-08-03T12:24:40.781Z,20.3
2022-08-03T12:25:40.790Z,19.9
2022-08-03T12:26:40.777Z,19.8
2022-08-03T12:27:40.793Z,19.8
2022-08-03T12:28:44.973Z,19.2
2022-08-03T12:29:40.781Z,19.7
2022-08-03T12:30:40.771Z,19.7
2022-08-03T12:31:40.783Z,19.9
2022-08-03T12:32:40.805Z,19.9
2022-08-03T12:33:40.790Z,20.1
2022-08-03T12:34:45.311Z,20.3
2022-08-03T12:35:40.770Z,19.7
2022-08-03T12:36:40.801Z,20.1
2022-08-03T12:37:40.790Z,20.1
2022-08-03T12:38:40.795Z,19.8
2022-08-03T12:40:00.421Z,20.1
2022-08-03T12:40:40.781Z,20
2022-08-03T12:41:40.787Z,19.8
2022-08-03T12:42:40.796Z,19.5
2022-08-03T12:43:40.800Z,19.7
2022-08-03T12:44:40.805Z,19.8
2022-08-03T12:45:40.810Z,19.9
2022-08-03T12:46:45.339Z,19.9
2022-08-03T12:47:40.787Z,19.7
2022-08-03T12:48:40.822Z,19.6
2022-08-03T12:49:40.807Z,19.5
2022-08-03T12:50:40.795Z,19.6
2022-08-03T12:51:40.814Z,19.7
2022-08-03T12:52:40.811Z,19.6
2022-08-03T12:53:40.808Z,19.3
2022-08-03T12:54:40.788Z,19.4
2022-08-03T12:56:04.742Z,19.3
2022-08-03T12:56:40.794Z,19.2
2022-08-03T12:57:40.789Z,19.4
2022-08-03T12:58:40.798Z,19.3
2022-08-03T12:59:41.429Z,19.4
2022-08-03T13:00:40.807Z,19.4
2022-08-03T13:01:54.839Z,19.5
2022-08-03T13:02:40.863Z,19.6
2022-08-03T13:03:42.556Z,19.8
2022-08-03T13:04:40.805Z,19.8
2022-08-03T13:05:40.810Z,19.9
2022-08-03T13:06:40.830Z,19.9
2022-08-03T13:07:40.792Z,19.9
2022-08-03T13:08:40.805Z,19.9
2022-08-03T13:09:40.797Z,19.8
2022-08-03T13:10:40.799Z,19.7
2022-08-03T13:11:57.645Z,20
2022-08-03T13:12:40.825Z,19.8
2022-08-03T13:13:40.810Z,19.7
2022-08-03T13:14:40.833Z,19.7
2022-08-03T13:15:47.630Z,19.8
2022-08-03T13:16:40.806Z,19.7
2022-08-03T13:17:40.813Z,19.5
2022-08-03T13:18:40.819Z,19.6
2022-08-03T13:19:40.809Z,19.6
2022-08-03T13:20:40.827Z,19.5
2022-08-03T13:22:03.072Z,19.6
2022-08-03T13:22:40.828Z,19.7
2022-08-03T13:23:40.812Z,19.9
2022-08-03T13:24:40.814Z,19.8
2022-08-03T13:25:40.810Z,19.8
2022-08-03T13:26:40.804Z,19.6
2022-08-03T13:28:03.317Z,19.6
2022-08-03T13:28:40.811Z,19.7